sensor_id;sensor_type;location;lat;lon;timestamp;temperature;humidity
14061;DHT22;7105;43.616;1.434;2022-12-07T00:00:41;8.60;99.90
14061;DHT22;7105;43.616;1.434;2022-12-07T00:03:07;8.60;99.90
14061;DHT22;7105;43.616;1.434;2022-12-07T00:05:33;8.60;99.90
14061;DHT22;7105;43.616;1.434;2022-12-07T00:07:58;8.60;99.90
14061;DHT22;7105;43.616;1.434;2022-12-07T00:10:24;8.70;99.90
14061;DHT22;7105;43.616;1.434;2022-12-07T00:12:50;8.70;99.90
14061;DHT22;7105;43.616;1.434;2022-12-07T00:15:16;8.70;99.90
14061;DHT22;7105;43.616;1.434;2022-12-07T00:17:41;8.60;99.90
14061;DHT22;7105;43.616;1.434;2022-12-07T00:20:07;8.70;99.90
14061;DHT22;7105;43.616;1.434;2022-12-07T00:22:33;8.70;99.90
14061;DHT22;7105;43.616;1.434;2022-12-07T00:24:59;8.70;99.90
14061;DHT22;7105;43.616;1.434;2022-12-07T00:27:24;8.70;99.90
14061;DHT22;7105;43.616;1.434;2022-12-07T00:29:50;8.70;99.90
14061;DHT22;7105;43.616;1.434;2022-12-07T00:32:15;8.60;99.90
14061;DHT22;7105;43.616;1.434;2022-12-07T00:34:41;8.60;99.90
14061;DHT22;7105;43.616;1.434;2022-12-07T00:37:07;8.60;99.90
14061;DHT22;7105;43.616;1.434;2022-12-07T00:39:32;8.60;99.90
14061;DHT22;7105;43.616;1.434;2022-12-07T00:41:58;8.60;99.90
14061;DHT22;7105;43.616;1.434;2022-12-07T00:44:23;8.60;99.90
14061;DHT22;7105;43.616;1.434;2022-12-07T00:46:49;8.60;99.90
14061;DHT22;7105;43.616;1.434;2022-12-07T00:49:15;8.60;99.90
14061;DHT22;7105;43.616;1.434;2022-12-07T00:51:40;8.50;99.90
14061;DHT22;7105;43.616;1.434;2022-12-07T00:54:06;8.60;99.90
14061;DHT22;7105;43.616;1.434;2022-12-07T00:56:32;8.60;99.90
14061;DHT22;7105;43.616;1.434;2022-12-07T00:58:59;8.50;99.90
14061;DHT22;7105;43.616;1.434;2022-12-07T01:01:27;8.50;99.90
14061;DHT22;7105;43.616;1.434;2022-12-07T01:03:53;8.50;99.90
14061;DHT22;7105;43.616;1.434;2022-12-07T01:06:21;8.50;99.90
14061;DHT22;7105;43.616;1.434;2022-12-07T01:08:47;8.50;99.90
14061;DHT22;7105;43.616;1.434;2022-12-07T01:11:15;8.40;99.90
14061;DHT22;7105;43.616;1.434;2022-12-07T01:13:42;8.40;99.90
14061;DHT22;7105;43.616;1.434;2022-12-07T01:16:10;8.40;99.90
14061;DHT22;7105;43.616;1.434;2022-12-07T01:18:36;8.30;99.90
14061;DHT22;7105;43.616;1.434;2022-12-07T01:21:05;8.30;99.90
14061;DHT22;7105;43.616;1.434;2022-12-07T01:23:32;8.30;99.90
14061;DHT22;7105;43.616;1.434;2022-12-07T01:26:01;8.30;99.90
14061;DHT22;7105;43.616;1.434;2022-12-07T01:28:27;8.40;99.90
14061;DHT22;7105;43.616;1.434;2022-12-07T01:31:01;8.40;99.90
14061;DHT22;7105;43.616;1.434;2022-12-07T01:33:29;8.50;99.90
14061;DHT22;7105;43.616;1.434;2022-12-07T01:36:01;8.50;99.90
14061;DHT22;7105;43.616;1.434;2022-12-07T01:38:26;8.40;99.90
14061;DHT22;7105;43.616;1.434;2022-12-07T01:40:56;8.50;99.90
14061;DHT22;7105;43.616;1.434;2022-12-07T01:43:24;8.40;99.90
14061;DHT22;7105;43.616;1.434;2022-12-07T01:45:51;8.50;99.90
14061;DHT22;7105;43.616;1.434;2022-12-07T01:48:20;8.50;99.90
14061;DHT22;7105;43.616;1.434;2022-12-07T01:50:48;8.50;99.90
14061;DHT22;7105;43.616;1.434;2022-12-07T01:53:16;8.40;99.90
14061;DHT22;7105;43.616;1.434;2022-12-07T01:55:46;8.40;99.90
14061;DHT22;7105;43.616;1.434;2022-12-07T01:58:13;8.40;99.90
14061;DHT22;7105;43.616;1.434;2022-12-07T02:00:40;8.40;99.90
14061;DHT22;7105;43.616;1.434;2022-12-07T02:03:13;8.30;99.90
14061;DHT22;7105;43.616;1.434;2022-12-07T02:05:41;8.30;99.90
14061;DHT22;7105;43.616;1.434;2022-12-07T02:08:09;8.30;99.90
14061;DHT22;7105;43.616;1.434;2022-12-07T02:10:35;8.30;99.90
14061;DHT22;7105;43.616;1.434;2022-12-07T02:13:03;8.30;99.90
14061;DHT22;7105;43.616;1.434;2022-12-07T02:29:47;8.30;99.90
14061;DHT22;7105;43.616;1.434;2022-12-07T02:32:28;8.30;99.90
14061;DHT22;7105;43.616;1.434;2022-12-07T02:35:07;8.30;99.90
14061;DHT22;7105;43.616;1.434;2022-12-07T02:37:55;8.40;99.90
14061;DHT22;7105;43.616;1.434;2022-12-07T02:40:25;8.40;99.90
14061;DHT22;7105;43.616;1.434;2022-12-07T02:43:04;8.40;99.90
14061;DHT22;7105;43.616;1.434;2022-12-07T02:45:31;8.40;99.90
14061;DHT22;7105;43.616;1.434;2022-12-07T02:47:59;8.50;99.90
14061;DHT22;7105;43.616;1.434;2022-12-07T02:50:26;8.50;99.90
14061;DHT22;7105;43.616;1.434;2022-12-07T02:52:51;8.40;99.90
14061;DHT22;7105;43.616;1.434;2022-12-07T02:55:21;8.50;99.90
14061;DHT22;7105;43.616;1.434;2022-12-07T03:00:59;8.50;99.90
14061;DHT22;7105;43.616;1.434;2022-12-07T03:03:30;8.50;99.90
14061;DHT22;7105;43.616;1.434;2022-12-07T03:06:16;8.60;99.90
14061;DHT22;7105;43.616;1.434;2022-12-07T03:11:32;8.60;99.90
14061;DHT22;7105;43.616;1.434;2022-12-07T03:17:08;8.60;99.90
14061;DHT22;7105;43.616;1.434;2022-12-07T03:19:36;8.50;99.90
14061;DHT22;7105;43.616;1.434;2022-12-07T03:22:07;8.50;99.90
14061;DHT22;7105;43.616;1.434;2022-12-07T03:24:43;8.50;99.90
14061;DHT22;7105;43.616;1.434;2022-12-07T03:29:46;8.40;99.90
14061;DHT22;7105;43.616;1.434;2022-12-07T03:32:28;8.50;99.90
14061;DHT22;7105;43.616;1.434;2022-12-07T03:42:48;8.40;99.90
14061;DHT22;7105;43.616;1.434;2022-12-07T03:45:15;8.40;99.90
14061;DHT22;7105;43.616;1.434;2022-12-07T03:47:55;8.40;99.90
14061;DHT22;7105;43.616;1.434;2022-12-07T03:50:32;8.40;99.90
14061;DHT22;7105;43.616;1.434;2022-12-07T03:53:05;8.40;99.90
14061;DHT22;7105;43.616;1.434;2022-12-07T03:55:39;8.50;99.90
14061;DHT22;7105;43.616;1.434;2022-12-07T03:58:14;8.50;99.90
14061;DHT22;7105;43.616;1.434;2022-12-07T04:00:43;8.50;99.90
14061;DHT22;7105;43.616;1.434;2022-12-07T04:03:10;8.50;99.90
14061;DHT22;7105;43.616;1.434;2022-12-07T04:05:36;8.50;99.90
14061;DHT22;7105;43.616;1.434;2022-12-07T04:08:02;8.50;99.90
14061;DHT22;7105;43.616;1.434;2022-12-07T04:10:28;8.40;99.90
14061;DHT22;7105;43.616;1.434;2022-12-07T04:12:55;8.40;99.90
14061;DHT22;7105;43.616;1.434;2022-12-07T04:15:21;8.40;99.90
14061;DHT22;7105;43.616;1.434;2022-12-07T04:17:46;8.40;99.90
14061;DHT22;7105;43.616;1.434;2022-12-07T04:20:12;8.50;99.90
14061;DHT22;7105;43.616;1.434;2022-12-07T04:22:38;8.40;99.90
14061;DHT22;7105;43.616;1.434;2022-12-07T04:25:04;8.40;99.90
14061;DHT22;7105;43.616;1.434;2022-12-07T04:27:30;8.40;99.90
14061;DHT22;7105;43.616;1.434;2022-12-07T04:29:56;8.40;99.90
14061;DHT22;7105;43.616;1.434;2022-12-07T04:32:23;8.40;99.90
14061;DHT22;7105;43.616;1.434;2022-12-07T04:34:48;8.40;99.90
14061;DHT22;7105;43.616;1.434;2022-12-07T04:37:14;8.40;99.90
14061;DHT22;7105;43.616;1.434;2022-12-07T04:39:40;8.40;99.90
14061;DHT22;7105;43.616;1.434;2022-12-07T04:42:06;8.40;99.90
14061;DHT22;7105;43.616;1.434;2022-12-07T04:44:31;8.50;99.90
14061;DHT22;7105;43.616;1.434;2022-12-07T04:46:57;8.50;99.90
14061;DHT22;7105;43.616;1.434;2022-12-07T04:49:24;8.50;99.90
14061;DHT22;7105;43.616;1.434;2022-12-07T04:51:50;8.50;99.90
14061;DHT22;7105;43.616;1.434;2022-12-07T04:54:17;8.50;99.90
14061;DHT22;7105;43.616;1.434;2022-12-07T04:56:44;8.50;99.90
14061;DHT22;7105;43.616;1.434;2022-12-07T04:59:11;8.50;99.90
14061;DHT22;7105;43.616;1.434;2022-12-07T05:01:37;8.50;99.90
14061;DHT22;7105;43.616;1.434;2022-12-07T05:04:03;8.50;99.90
14061;DHT22;7105;43.616;1.434;2022-12-07T05:06:29;8.40;99.90
14061;DHT22;7105;43.616;1.434;2022-12-07T05:08:54;8.40;99.90
14061;DHT22;7105;43.616;1.434;2022-12-07T05:11:20;8.40;99.90
14061;DHT22;7105;43.616;1.434;2022-12-07T05:16:36;8.50;99.90
14061;DHT22;7105;43.616;1.434;2022-12-07T05:19:02;8.50;99.90
14061;DHT22;7105;43.616;1.434;2022-12-07T05:21:28;8.50;99.90
14061;DHT22;7105;43.616;1.434;2022-12-07T05:23:54;8.50;99.90
14061;DHT22;7105;43.616;1.434;2022-12-07T05:26:19;8.50;99.90
14061;DHT22;7105;43.616;1.434;2022-12-07T05:28:49;8.50;99.90
14061;DHT22;7105;43.616;1.434;2022-12-07T05:31:15;8.50;99.90
14061;DHT22;7105;43.616;1.434;2022-12-07T05:33:41;8.60;99.90
14061;DHT22;7105;43.616;1.434;2022-12-07T05:36:07;8.50;99.90
14061;DHT22;7105;43.616;1.434;2022-12-07T05:38:34;8.50;99.90
14061;DHT22;7105;43.616;1.434;2022-12-07T05:41:01;8.50;99.90
14061;DHT22;7105;43.616;1.434;2022-12-07T05:43:28;8.50;99.90
14061;DHT22;7105;43.616;1.434;2022-12-07T05:45:53;8.50;99.90
14061;DHT22;7105;43.616;1.434;2022-12-07T05:48:19;8.60;99.90
14061;DHT22;7105;43.616;1.434;2022-12-07T05:50:47;8.50;99.90
14061;DHT22;7105;43.616;1.434;2022-12-07T05:53:13;8.40;99.90
14061;DHT22;7105;43.616;1.434;2022-12-07T05:55:39;8.40;99.90
14061;DHT22;7105;43.616;1.434;2022-12-07T05:58:05;8.50;99.90
14061;DHT22;7105;43.616;1.434;2022-12-07T06:00:50;8.40;99.90
14061;DHT22;7105;43.616;1.434;2022-12-07T06:03:16;8.50;99.90
14061;DHT22;7105;43.616;1.434;2022-12-07T06:05:42;8.50;99.90
14061;DHT22;7105;43.616;1.434;2022-12-07T06:08:08;8.50;99.90
14061;DHT22;7105;43.616;1.434;2022-12-07T06:10:33;8.40;99.90
14061;DHT22;7105;43.616;1.434;2022-12-07T06:12:59;8.50;99.90
14061;DHT22;7105;43.616;1.434;2022-12-07T06:15:25;8.40;99.90
14061;DHT22;7105;43.616;1.434;2022-12-07T06:17:50;8.40;99.90
14061;DHT22;7105;43.616;1.434;2022-12-07T06:20:16;8.40;99.90
14061;DHT22;7105;43.616;1.434;2022-12-07T06:22:42;8.40;99.90
14061;DHT22;7105;43.616;1.434;2022-12-07T06:25:08;8.40;99.90
14061;DHT22;7105;43.616;1.434;2022-12-07T06:27:34;8.40;99.90
14061;DHT22;7105;43.616;1.434;2022-12-07T06:30:00;8.40;99.90
14061;DHT22;7105;43.616;1.434;2022-12-07T06:32:35;8.30;99.90
14061;DHT22;7105;43.616;1.434;2022-12-07T06:35:03;8.30;99.90
14061;DHT22;7105;43.616;1.434;2022-12-07T06:37:29;8.40;99.90
14061;DHT22;7105;43.616;1.434;2022-12-07T06:39:54;8.40;99.90
14061;DHT22;7105;43.616;1.434;2022-12-07T06:42:20;8.40;99.90
14061;DHT22;7105;43.616;1.434;2022-12-07T06:44:46;8.40;99.90
14061;DHT22;7105;43.616;1.434;2022-12-07T06:47:12;8.40;99.90
14061;DHT22;7105;43.616;1.434;2022-12-07T06:49:37;8.40;99.90
14061;DHT22;7105;43.616;1.434;2022-12-07T06:52:03;8.40;99.90
14061;DHT22;7105;43.616;1.434;2022-12-07T06:54:31;8.40;99.90
14061;DHT22;7105;43.616;1.434;2022-12-07T06:56:58;8.40;99.90
14061;DHT22;7105;43.616;1.434;2022-12-07T06:59:24;8.40;99.90
14061;DHT22;7105;43.616;1.434;2022-12-07T07:01:49;8.40;99.90
14061;DHT22;7105;43.616;1.434;2022-12-07T07:04:15;8.40;99.90
14061;DHT22;7105;43.616;1.434;2022-12-07T07:06:41;8.40;99.90
14061;DHT22;7105;43.616;1.434;2022-12-07T07:09:06;8.40;99.90
14061;DHT22;7105;43.616;1.434;2022-12-07T07:11:32;8.40;99.90
14061;DHT22;7105;43.616;1.434;2022-12-07T07:13:58;8.40;99.90
14061;DHT22;7105;43.616;1.434;2022-12-07T07:16:28;8.40;99.90
14061;DHT22;7105;43.616;1.434;2022-12-07T07:18:55;8.40;99.90
14061;DHT22;7105;43.616;1.434;2022-12-07T07:21:21;8.40;99.90
14061;DHT22;7105;43.616;1.434;2022-12-07T07:23:46;8.40;99.90
14061;DHT22;7105;43.616;1.434;2022-12-07T07:26:12;8.40;99.90
14061;DHT22;7105;43.616;1.434;2022-12-07T07:28:38;8.40;99.90
14061;DHT22;7105;43.616;1.434;2022-12-07T07:31:04;8.40;99.90
14061;DHT22;7105;43.616;1.434;2022-12-07T07:33:29;8.40;99.90
14061;DHT22;7105;43.616;1.434;2022-12-07T07:35:55;8.50;99.90
14061;DHT22;7105;43.616;1.434;2022-12-07T07:38:21;8.40;99.90
14061;DHT22;7105;43.616;1.434;2022-12-07T07:40:46;8.50;99.90
14061;DHT22;7105;43.616;1.434;2022-12-07T07:43:12;8.50;99.90
14061;DHT22;7105;43.616;1.434;2022-12-07T07:45:38;8.50;99.90
14061;DHT22;7105;43.616;1.434;2022-12-07T07:48:04;8.50;99.90
14061;DHT22;7105;43.616;1.434;2022-12-07T07:50:29;8.60;99.90
14061;DHT22;7105;43.616;1.434;2022-12-07T07:52:57;8.60;99.90
14061;DHT22;7105;43.616;1.434;2022-12-07T07:55:22;8.60;99.90
14061;DHT22;7105;43.616;1.434;2022-12-07T07:57:48;8.70;99.90
14061;DHT22;7105;43.616;1.434;2022-12-07T08:00:14;8.70;99.90
14061;DHT22;7105;43.616;1.434;2022-12-07T08:02:42;8.80;99.90
14061;DHT22;7105;43.616;1.434;2022-12-07T08:05:09;8.70;99.90
14061;DHT22;7105;43.616;1.434;2022-12-07T08:07:35;8.80;99.90
14061;DHT22;7105;43.616;1.434;2022-12-07T08:10:00;8.80;99.90
14061;DHT22;7105;43.616;1.434;2022-12-07T08:12:26;8.80;99.90
14061;DHT22;7105;43.616;1.434;2022-12-07T08:14:52;8.80;99.90
14061;DHT22;7105;43.616;1.434;2022-12-07T08:17:17;8.90;99.90
14061;DHT22;7105;43.616;1.434;2022-12-07T08:19:43;8.80;99.90
14061;DHT22;7105;43.616;1.434;2022-12-07T08:22:09;9.00;99.90
14061;DHT22;7105;43.616;1.434;2022-12-07T08:24:35;9.00;99.90
14061;DHT22;7105;43.616;1.434;2022-12-07T08:27:02;9.10;99.90
14061;DHT22;7105;43.616;1.434;2022-12-07T08:29:28;9.20;99.90
14061;DHT22;7105;43.616;1.434;2022-12-07T08:31:54;9.20;99.90
14061;DHT22;7105;43.616;1.434;2022-12-07T08:34:20;9.10;99.90
14061;DHT22;7105;43.616;1.434;2022-12-07T08:36:46;9.30;99.90
14061;DHT22;7105;43.616;1.434;2022-12-07T08:39:12;9.50;99.90
14061;DHT22;7105;43.616;1.434;2022-12-07T08:41:37;9.50;99.90
14061;DHT22;7105;43.616;1.434;2022-12-07T08:44:03;9.70;99.90
14061;DHT22;7105;43.616;1.434;2022-12-07T08:46:55;9.60;99.90
14061;DHT22;7105;43.616;1.434;2022-12-07T08:49:27;9.60;99.90
14061;DHT22;7105;43.616;1.434;2022-12-07T08:51:55;9.70;99.90
14061;DHT22;7105;43.616;1.434;2022-12-07T08:54:21;11.30;99.90
14061;DHT22;7105;43.616;1.434;2022-12-07T08:56:48;12.70;99.90
14061;DHT22;7105;43.616;1.434;2022-12-07T08:59:16;12.10;99.90
14061;DHT22;7105;43.616;1.434;2022-12-07T09:01:42;11.50;99.90
14061;DHT22;7105;43.616;1.434;2022-12-07T09:04:08;10.80;99.90
14061;DHT22;7105;43.616;1.434;2022-12-07T09:06:34;11.10;99.90
14061;DHT22;7105;43.616;1.434;2022-12-07T09:09:00;11.10;99.90
14061;DHT22;7105;43.616;1.434;2022-12-07T09:11:26;10.70;99.90
14061;DHT22;7105;43.616;1.434;2022-12-07T09:13:52;10.80;99.90
14061;DHT22;7105;43.616;1.434;2022-12-07T09:16:18;10.80;99.90
14061;DHT22;7105;43.616;1.434;2022-12-07T09:18:44;10.70;99.90
14061;DHT22;7105;43.616;1.434;2022-12-07T09:21:09;10.50;99.90
14061;DHT22;7105;43.616;1.434;2022-12-07T09:23:35;10.50;99.90
14061;DHT22;7105;43.616;1.434;2022-12-07T09:26:02;10.40;99.90
14061;DHT22;7105;43.616;1.434;2022-12-07T09:28:28;10.70;99.90
14061;DHT22;7105;43.616;1.434;2022-12-07T09:30:55;10.30;99.90
14061;DHT22;7105;43.616;1.434;2022-12-07T09:33:20;10.10;99.90
14061;DHT22;7105;43.616;1.434;2022-12-07T09:35:47;10.10;99.90
14061;DHT22;7105;43.616;1.434;2022-12-07T09:38:13;10.10;99.90
14061;DHT22;7105;43.616;1.434;2022-12-07T09:40:39;10.10;99.90
14061;DHT22;7105;43.616;1.434;2022-12-07T09:43:11;10.10;99.90
14061;DHT22;7105;43.616;1.434;2022-12-07T09:45:38;10.10;99.90
14061;DHT22;7105;43.616;1.434;2022-12-07T09:48:04;10.20;99.90
14061;DHT22;7105;43.616;1.434;2022-12-07T09:50:30;10.10;99.90
14061;DHT22;7105;43.616;1.434;2022-12-07T09:53:07;10.20;99.90
14061;DHT22;7105;43.616;1.434;2022-12-07T09:55:33;10.30;99.90
14061;DHT22;7105;43.616;1.434;2022-12-07T09:58:01;10.40;99.90
14061;DHT22;7105;43.616;1.434;2022-12-07T10:00:27;10.40;99.90
14061;DHT22;7105;43.616;1.434;2022-12-07T10:02:59;10.40;99.90
14061;DHT22;7105;43.616;1.434;2022-12-07T10:05:43;10.30;99.90
14061;DHT22;7105;43.616;1.434;2022-12-07T10:08:13;10.30;99.90
14061;DHT22;7105;43.616;1.434;2022-12-07T10:10:41;10.40;99.90
14061;DHT22;7105;43.616;1.434;2022-12-07T10:13:07;10.40;99.90
14061;DHT22;7105;43.616;1.434;2022-12-07T10:23:57;10.40;99.90
14061;DHT22;7105;43.616;1.434;2022-12-07T10:26:30;10.40;99.90
14061;DHT22;7105;43.616;1.434;2022-12-07T10:31:45;10.50;99.90
14061;DHT22;7105;43.616;1.434;2022-12-07T10:34:34;10.50;99.90
14061;DHT22;7105;43.616;1.434;2022-12-07T10:45:03;10.60;99.90
14061;DHT22;7105;43.616;1.434;2022-12-07T11:07:17;10.90;99.90
14061;DHT22;7105;43.616;1.434;2022-12-07T11:15:01;10.90;99.90
14061;DHT22;7105;43.616;1.434;2022-12-07T11:17:32;10.80;99.90
14061;DHT22;7105;43.616;1.434;2022-12-07T11:20:15;10.90;99.90
14061;DHT22;7105;43.616;1.434;2022-12-07T11:22:55;10.90;99.90
14061;DHT22;7105;43.616;1.434;2022-12-07T11:25:46;11.00;99.90
14061;DHT22;7105;43.616;1.434;2022-12-07T11:38:49;11.30;99.90
14061;DHT22;7105;43.616;1.434;2022-12-07T11:41:22;11.40;99.90
14061;DHT22;7105;43.616;1.434;2022-12-07T11:44:01;11.40;99.90
14061;DHT22;7105;43.616;1.434;2022-12-07T11:49:27;11.50;99.90
14061;DHT22;7105;43.616;1.434;2022-12-07T11:52:02;11.60;99.90
14061;DHT22;7105;43.616;1.434;2022-12-07T11:54:34;11.60;99.90
14061;DHT22;7105;43.616;1.434;2022-12-07T11:57:05;11.60;99.90
14061;DHT22;7105;43.616;1.434;2022-12-07T11:59:45;11.80;99.90
14061;DHT22;7105;43.616;1.434;2022-12-07T12:02:23;11.80;99.90
14061;DHT22;7105;43.616;1.434;2022-12-07T12:05:15;11.70;99.90
14061;DHT22;7105;43.616;1.434;2022-12-07T12:07:42;11.80;99.90
14061;DHT22;7105;43.616;1.434;2022-12-07T12:15:52;11.80;99.90
14061;DHT22;7105;43.616;1.434;2022-12-07T12:21:16;11.90;99.90
14061;DHT22;7105;43.616;1.434;2022-12-07T12:23:45;12.00;99.90
14061;DHT22;7105;43.616;1.434;2022-12-07T12:26:21;11.90;99.90
14061;DHT22;7105;43.616;1.434;2022-12-07T12:28:52;12.00;99.90
14061;DHT22;7105;43.616;1.434;2022-12-07T12:38:51;12.10;99.90
14061;DHT22;7105;43.616;1.434;2022-12-07T12:47:40;12.10;99.90
14061;DHT22;7105;43.616;1.434;2022-12-07T12:50:26;12.20;99.90
14061;DHT22;7105;43.616;1.434;2022-12-07T12:52:56;12.10;99.90
14061;DHT22;7105;43.616;1.434;2022-12-07T12:55:58;12.20;99.90
14061;DHT22;7105;43.616;1.434;2022-12-07T12:58:35;12.20;99.90
14061;DHT22;7105;43.616;1.434;2022-12-07T13:04:03;12.30;99.90
14061;DHT22;7105;43.616;1.434;2022-12-07T13:06:40;12.30;99.90
14061;DHT22;7105;43.616;1.434;2022-12-07T13:09:19;12.30;99.90
14061;DHT22;7105;43.616;1.434;2022-12-07T13:11:46;12.40;99.90
14061;DHT22;7105;43.616;1.434;2022-12-07T13:17:07;12.40;99.90
14061;DHT22;7105;43.616;1.434;2022-12-07T13:22:39;12.40;99.90
14061;DHT22;7105;43.616;1.434;2022-12-07T13:25:28;12.40;99.90
14061;DHT22;7105;43.616;1.434;2022-12-07T13:28:02;12.40;99.90
14061;DHT22;7105;43.616;1.434;2022-12-07T13:30:32;12.30;99.90
14061;DHT22;7105;43.616;1.434;2022-12-07T13:33:04;12.30;99.90
14061;DHT22;7105;43.616;1.434;2022-12-07T13:35:34;12.30;99.90
14061;DHT22;7105;43.616;1.434;2022-12-07T13:38:05;12.40;99.90
14061;DHT22;7105;43.616;1.434;2022-12-07T13:40:31;12.40;99.90
14061;DHT22;7105;43.616;1.434;2022-12-07T13:43:02;12.40;99.90
14061;DHT22;7105;43.616;1.434;2022-12-07T13:45:31;12.40;99.90
14061;DHT22;7105;43.616;1.434;2022-12-07T13:50:57;12.50;99.90
14061;DHT22;7105;43.616;1.434;2022-12-07T13:53:24;12.50;99.90
14061;DHT22;7105;43.616;1.434;2022-12-07T13:55:58;12.50;99.90
14061;DHT22;7105;43.616;1.434;2022-12-07T13:58:26;12.50;99.90
14061;DHT22;7105;43.616;1.434;2022-12-07T14:00:52;12.50;99.90
14061;DHT22;7105;43.616;1.434;2022-12-07T14:03:23;12.60;99.90
14061;DHT22;7105;43.616;1.434;2022-12-07T14:06:23;12.60;99.90
14061;DHT22;7105;43.616;1.434;2022-12-07T14:09:17;12.60;99.90
14061;DHT22;7105;43.616;1.434;2022-12-07T14:11:43;12.40;99.90
14061;DHT22;7105;43.616;1.434;2022-12-07T14:14:26;12.40;99.90
14061;DHT22;7105;43.616;1.434;2022-12-07T14:17:12;12.40;99.90
14061;DHT22;7105;43.616;1.434;2022-12-07T14:22:30;12.50;99.90
14061;DHT22;7105;43.616;1.434;2022-12-07T14:25:17;12.50;99.90
14061;DHT22;7105;43.616;1.434;2022-12-07T14:30:22;12.40;99.90
14061;DHT22;7105;43.616;1.434;2022-12-07T14:33:09;12.40;99.90
14061;DHT22;7105;43.616;1.434;2022-12-07T14:35:37;12.40;99.90
14061;DHT22;7105;43.616;1.434;2022-12-07T14:38:05;12.40;99.90
14061;DHT22;7105;43.616;1.434;2022-12-07T14:40:32;12.40;99.90
14061;DHT22;7105;43.616;1.434;2022-12-07T14:43:01;12.50;99.90
14061;DHT22;7105;43.616;1.434;2022-12-07T14:45:27;12.50;99.90
14061;DHT22;7105;43.616;1.434;2022-12-07T14:47:53;12.40;99.90
14061;DHT22;7105;43.616;1.434;2022-12-07T14:50:20;12.40;99.90
14061;DHT22;7105;43.616;1.434;2022-12-07T14:52:51;12.40;99.90
14061;DHT22;7105;43.616;1.434;2022-12-07T14:55:30;12.40;99.90
14061;DHT22;7105;43.616;1.434;2022-12-07T14:57:57;12.40;99.90
14061;DHT22;7105;43.616;1.434;2022-12-07T15:00:26;12.30;99.90
14061;DHT22;7105;43.616;1.434;2022-12-07T15:02:52;12.30;99.90
14061;DHT22;7105;43.616;1.434;2022-12-07T15:05:18;12.30;99.90
14061;DHT22;7105;43.616;1.434;2022-12-07T15:07:45;12.30;99.90
14061;DHT22;7105;43.616;1.434;2022-12-07T15:10:17;12.30;99.90
14061;DHT22;7105;43.616;1.434;2022-12-07T15:12:43;12.30;99.90
14061;DHT22;7105;43.616;1.434;2022-12-07T15:15:10;12.30;99.90
14061;DHT22;7105;43.616;1.434;2022-12-07T15:17:36;12.30;99.90
14061;DHT22;7105;43.616;1.434;2022-12-07T15:20:03;12.30;99.90
14061;DHT22;7105;43.616;1.434;2022-12-07T15:22:29;12.30;99.90
14061;DHT22;7105;43.616;1.434;2022-12-07T15:24:57;12.30;99.90
14061;DHT22;7105;43.616;1.434;2022-12-07T15:27:22;12.20;99.90
14061;DHT22;7105;43.616;1.434;2022-12-07T15:29:48;12.10;99.90
14061;DHT22;7105;43.616;1.434;2022-12-07T15:32:14;12.00;99.90
14061;DHT22;7105;43.616;1.434;2022-12-07T15:34:39;11.90;99.90
14061;DHT22;7105;43.616;1.434;2022-12-07T15:37:05;11.90;99.90
14061;DHT22;7105;43.616;1.434;2022-12-07T15:39:31;11.90;99.90
14061;DHT22;7105;43.616;1.434;2022-12-07T15:41:57;11.80;99.90
14061;DHT22;7105;43.616;1.434;2022-12-07T15:44:22;11.70;99.90
14061;DHT22;7105;43.616;1.434;2022-12-07T15:47:06;11.60;99.90
14061;DHT22;7105;43.616;1.434;2022-12-07T15:49:32;11.60;99.90
14061;DHT22;7105;43.616;1.434;2022-12-07T15:51:58;11.50;99.90
14061;DHT22;7105;43.616;1.434;2022-12-07T15:54:26;11.50;99.90
14061;DHT22;7105;43.616;1.434;2022-12-07T15:56:52;11.40;99.90
14061;DHT22;7105;43.616;1.434;2022-12-07T15:59:18;11.30;99.90
14061;DHT22;7105;43.616;1.434;2022-12-07T16:01:44;11.30;99.90
14061;DHT22;7105;43.616;1.434;2022-12-07T16:04:10;11.30;99.90
14061;DHT22;7105;43.616;1.434;2022-12-07T16:06:36;11.20;99.90
14061;DHT22;7105;43.616;1.434;2022-12-07T16:09:02;11.10;99.90
14061;DHT22;7105;43.616;1.434;2022-12-07T16:11:27;11.10;99.90
14061;DHT22;7105;43.616;1.434;2022-12-07T16:13:53;11.00;99.90
14061;DHT22;7105;43.616;1.434;2022-12-07T16:16:20;10.90;99.90
14061;DHT22;7105;43.616;1.434;2022-12-07T16:18:49;10.90;99.90
14061;DHT22;7105;43.616;1.434;2022-12-07T16:21:16;10.80;99.90
14061;DHT22;7105;43.616;1.434;2022-12-07T16:23:43;10.60;99.90
14061;DHT22;7105;43.616;1.434;2022-12-07T16:26:15;10.60;99.90
14061;DHT22;7105;43.616;1.434;2022-12-07T16:28:41;10.50;99.90
14061;DHT22;7105;43.616;1.434;2022-12-07T16:31:13;10.50;99.90
14061;DHT22;7105;43.616;1.434;2022-12-07T16:33:40;10.30;99.90
14061;DHT22;7105;43.616;1.434;2022-12-07T16:36:07;10.30;99.90
14061;DHT22;7105;43.616;1.434;2022-12-07T16:38:34;10.40;99.90
14061;DHT22;7105;43.616;1.434;2022-12-07T16:40:59;10.40;99.90
14061;DHT22;7105;43.616;1.434;2022-12-07T16:43:25;10.40;99.90
14061;DHT22;7105;43.616;1.434;2022-12-07T16:45:51;10.40;99.90
14061;DHT22;7105;43.616;1.434;2022-12-07T16:48:17;10.30;99.90
14061;DHT22;7105;43.616;1.434;2022-12-07T16:50:43;10.40;99.90
14061;DHT22;7105;43.616;1.434;2022-12-07T16:53:10;10.30;99.90
14061;DHT22;7105;43.616;1.434;2022-12-07T16:55:41;10.30;99.90
14061;DHT22;7105;43.616;1.434;2022-12-07T16:58:08;10.20;99.90
14061;DHT22;7105;43.616;1.434;2022-12-07T17:00:34;10.30;99.90
14061;DHT22;7105;43.616;1.434;2022-12-07T17:03:00;10.30;99.90
14061;DHT22;7105;43.616;1.434;2022-12-07T17:05:26;10.20;99.90
14061;DHT22;7105;43.616;1.434;2022-12-07T17:07:53;10.10;99.90
14061;DHT22;7105;43.616;1.434;2022-12-07T17:10:19;10.00;99.90
14061;DHT22;7105;43.616;1.434;2022-12-07T17:12:45;9.90;99.90
14061;DHT22;7105;43.616;1.434;2022-12-07T17:15:10;9.80;99.90
14061;DHT22;7105;43.616;1.434;2022-12-07T17:17:56;9.80;99.90
14061;DHT22;7105;43.616;1.434;2022-12-07T17:20:23;9.90;99.90
14061;DHT22;7105;43.616;1.434;2022-12-07T17:22:50;9.80;99.90
14061;DHT22;7105;43.616;1.434;2022-12-07T17:25:16;9.90;99.90
14061;DHT22;7105;43.616;1.434;2022-12-07T17:27:43;9.90;99.90
14061;DHT22;7105;43.616;1.434;2022-12-07T17:30:10;10.00;99.90
14061;DHT22;7105;43.616;1.434;2022-12-07T17:32:36;10.00;99.90
14061;DHT22;7105;43.616;1.434;2022-12-07T17:35:04;9.90;99.90
14061;DHT22;7105;43.616;1.434;2022-12-07T17:37:31;9.70;99.90
14061;DHT22;7105;43.616;1.434;2022-12-07T17:39:56;9.70;99.90
14061;DHT22;7105;43.616;1.434;2022-12-07T17:42:24;9.60;99.90
14061;DHT22;7105;43.616;1.434;2022-12-07T17:45:07;9.60;99.90
14061;DHT22;7105;43.616;1.434;2022-12-07T17:47:34;9.70;99.90
14061;DHT22;7105;43.616;1.434;2022-12-07T17:50:00;9.70;99.90
14061;DHT22;7105;43.616;1.434;2022-12-07T17:52:26;9.50;99.90
14061;DHT22;7105;43.616;1.434;2022-12-07T17:55:10;9.50;99.90
14061;DHT22;7105;43.616;1.434;2022-12-07T17:57:36;9.50;99.90
14061;DHT22;7105;43.616;1.434;2022-12-07T18:00:04;9.40;99.90
14061;DHT22;7105;43.616;1.434;2022-12-07T18:02:31;9.30;99.90
14061;DHT22;7105;43.616;1.434;2022-12-07T18:04:57;9.20;99.90
14061;DHT22;7105;43.616;1.434;2022-12-07T18:07:22;9.30;99.90
14061;DHT22;7105;43.616;1.434;2022-12-07T18:09:48;9.40;99.90
14061;DHT22;7105;43.616;1.434;2022-12-07T18:12:14;9.50;99.90
14061;DHT22;7105;43.616;1.434;2022-12-07T18:14:39;9.60;99.90
14061;DHT22;7105;43.616;1.434;2022-12-07T18:17:05;9.60;99.90